Time;durP1;ratioP1;P1;durP2;ratioP2;P2;SDS_P1;SDS_P2;PMS_P1;PMS_P2;Temp;Humidity;BMP_temperature;BMP_pressure;BME280_temperature;BME280_humidity;BME280_pressure;Samples;Min_cycle;Max_cycle;Signal;HPM_P1;HPM_P2
2020/12/02 00:02:11;;;;;;;4.05;1.98;;;1.60;99.90;;;;;;4401569;32;20117;-56
2020/12/02 00:04:38;;;;;;;0.62;0.62;;;1.60;99.90;;;;;;4403960;32;20073;-53
2020/12/02 00:07:05;;;;;;;1.77;0.98;;;1.50;99.90;;;;;;4416572;32;20073;-56
2020/12/02 00:09:30;;;;;;;0.50;0.50;;;1.30;99.90;;;;;;4414529;32;20120;-53
2020/12/02 00:11:56;;;;;;;1.20;1.17;;;1.20;99.90;;;;;;4414580;32;20073;-52
2020/12/02 00:14:27;;;;;;;1.83;1.65;;;1.20;99.90;;;;;;4414737;32;20070;-52
2020/12/02 00:16:53;;;;;;;1.40;1.30;;;1.20;99.90;;;;;;4401460;32;20070;-52
2020/12/02 00:19:20;;;;;;;1.77;1.33;;;1.20;99.90;;;;;;4414457;32;20229;-53
2020/12/02 00:22:08;;;;;;;1.40;1.30;;;1.20;99.90;;;;;;4413931;32;20078;-55
2020/12/02 00:24:34;;;;;;;1.12;1.05;;;1.10;99.90;;;;;;4414158;32;20120;-55
2020/12/02 00:27:03;;;;;;;1.08;0.98;;;1.10;99.90;;;;;;4400633;32;20065;-52
2020/12/02 00:29:28;;;;;;;0.60;0.60;;;1.10;99.90;;;;;;4399730;32;20112;-55
2020/12/02 00:31:53;;;;;;;0.88;0.88;;;1.10;99.90;;;;;;4399618;32;20074;-52
2020/12/02 00:34:19;;;;;;;2.85;1.27;;;1.10;99.90;;;;;;4400302;32;20428;-52
2020/12/02 00:36:44;;;;;;;1.08;1.08;;;1.20;99.90;;;;;;4399342;32;20082;-52
2020/12/02 00:39:10;;;;;;;0.50;0.50;;;1.20;99.90;;;;;;4400335;32;20605;-52
2020/12/02 00:41:35;;;;;;;0.95;0.95;;;1.20;99.90;;;;;;4400472;32;20523;-54
2020/12/02 00:44:02;;;;;;;0.70;0.70;;;1.30;99.90;;;;;;4399267;32;20413;-53
2020/12/02 00:46:27;;;;;;;0.73;0.73;;;1.40;99.90;;;;;;4399750;32;20069;-52
2020/12/02 00:48:53;;;;;;;3.72;1.67;;;1.40;99.90;;;;;;4398777;32;20118;-53
2020/12/02 00:51:19;;;;;;;0.90;0.90;;;1.30;99.90;;;;;;4399257;32;20062;-54
2020/12/02 00:53:45;;;;;;;1.35;1.20;;;1.30;99.90;;;;;;4399483;32;20378;-53
2020/12/02 00:56:12;;;;;;;0.98;0.95;;;1.30;99.90;;;;;;4397960;32;20149;-52
2020/12/02 00:59:09;;;;;;;1.00;0.95;;;1.30;99.90;;;;;;4400368;32;20110;-56
2020/12/02 01:01:47;;;;;;;0.70;0.70;;;1.30;99.90;;;;;;4399860;32;20400;-55
2020/12/02 01:04:18;;;;;;;4.53;1.80;;;1.30;99.90;;;;;;4399995;32;20125;-53
2020/12/02 01:06:46;;;;;;;0.77;0.77;;;1.30;99.90;;;;;;4399618;32;20081;-55
2020/12/02 01:09:14;;;;;;;0.60;0.60;;;1.20;99.90;;;;;;4399601;32;20413;-54
2020/12/02 01:11:40;;;;;;;2.33;2.03;;;1.10;99.90;;;;;;4398831;32;20067;-53
2020/12/02 01:14:10;;;;;;;2.10;1.25;;;1.10;99.90;;;;;;4397292;32;20075;-52
2020/12/02 01:16:39;;;;;;;1.40;1.20;;;1.10;99.90;;;;;;4399229;32;20189;-52
2020/12/02 01:19:11;;;;;;;1.60;1.12;;;1.10;99.90;;;;;;4398283;32;20070;-55
2020/12/02 01:21:52;;;;;;;3.42;1.70;;;1.10;99.90;;;;;;4398306;32;20070;-55
2020/12/02 01:24:24;;;;;;;3.20;1.52;;;1.00;99.90;;;;;;4399710;32;20083;-55
2020/12/02 01:26:59;;;;;;;1.15;0.90;;;0.90;99.90;;;;;;4398704;32;20082;-52
2020/12/02 01:29:25;;;;;;;2.75;1.92;;;0.80;99.90;;;;;;4386723;32;20054;-56
2020/12/02 01:31:54;;;;;;;0.73;0.73;;;0.80;99.90;;;;;;4400062;32;20074;-56
2020/12/02 01:34:21;;;;;;;2.08;1.73;;;0.90;99.90;;;;;;4398603;32;20061;-52
2020/12/02 01:37:19;;;;;;;0.40;0.40;;;0.80;99.90;;;;;;4386329;32;20120;-52
2020/12/02 01:39:53;;;;;;;5.97;1.83;;;0.80;99.90;;;;;;4398672;32;20393;-53
2020/12/02 01:42:18;;;;;;;2.08;1.87;;;0.90;99.90;;;;;;4399281;32;20507;-55
2020/12/02 01:44:44;;;;;;;1.17;1.02;;;1.00;99.90;;;;;;4398587;32;20066;-51
2020/12/02 01:47:37;;;;;;;0.65;0.65;;;1.00;99.90;;;;;;4398746;32;20125;-52
2020/12/02 01:50:08;;;;;;;1.73;1.50;;;1.00;99.90;;;;;;4399095;32;20113;-53
2020/12/02 01:52:41;;;;;;;;;;;0.80;99.90;;;;;;4400136;32;20165;-56
2020/12/02 01:55:13;;;;;;;1.23;1.10;;;0.80;99.90;;;;;;4401769;32;20357;-53
2020/12/02 01:57:39;;;;;;;1.58;1.27;;;0.70;99.90;;;;;;4401431;32;20046;-52
2020/12/02 02:00:12;;;;;;;1.45;1.12;;;0.80;99.90;;;;;;4402470;32;20087;-51
2020/12/02 02:02:58;;;;;;;1.37;1.27;;;0.90;99.90;;;;;;4388953;32;20538;-52
2020/12/02 02:05:34;;;;;;;0.98;0.98;;;0.90;99.90;;;;;;4401392;32;20085;-51
2020/12/02 02:08:00;;;;;;;2.28;1.65;;;0.90;99.90;;;;;;4402374;32;20061;-52
2020/12/02 02:10:35;;;;;;;1.25;0.98;;;1.00;99.90;;;;;;4375492;32;20159;-54
2020/12/02 02:13:32;;;;;;;1.85;1.45;;;1.00;99.90;;;;;;4376042;32;20109;-55
2020/12/02 02:16:09;;;;;;;0.68;0.68;;;1.00;99.90;;;;;;4390169;32;20494;-52
2020/12/02 02:18:35;;;;;;;3.40;1.30;;;1.00;99.90;;;;;;4387194;32;20055;-52
2020/12/02 02:21:05;;;;;;;1.45;0.95;;;0.90;99.90;;;;;;4388490;32;20087;-52
2020/12/02 02:23:31;;;;;;;2.83;2.45;;;0.90;99.90;;;;;;4380512;32;20061;-52
2020/12/02 02:26:10;;;;;;;2.40;2.20;;;1.00;99.90;;;;;;4401401;32;20082;-52
2020/12/02 02:28:41;;;;;;;0.55;0.55;;;0.90;99.90;;;;;;4400405;32;20079;-55
2020/12/02 02:31:15;;;;;;;4.50;1.25;;;0.90;99.90;;;;;;4401903;32;20129;-54
2020/12/02 02:33:41;;;;;;;9.20;2.85;;;0.90;99.90;;;;;;4400142;32;20127;-51
2020/12/02 02:36:11;;;;;;;1.17;1.00;;;0.80;99.90;;;;;;4400963;32;20066;-55
2020/12/02 02:38:37;;;;;;;1.80;1.20;;;0.80;99.90;;;;;;4400701;32;20062;-54
2020/12/02 02:41:02;;;;;;;1.23;1.12;;;0.80;99.90;;;;;;4401165;32;20290;-51
2020/12/02 02:43:28;;;;;;;3.45;1.48;;;0.90;99.90;;;;;;4402052;32;20054;-53
2020/12/02 02:45:53;;;;;;;0.68;0.68;;;0.90;99.90;;;;;;4400837;32;20128;-53
2020/12/02 02:48:19;;;;;;;0.57;0.57;;;0.90;99.90;;;;;;4401177;32;20061;-52
2020/12/02 02:50:44;;;;;;;0.73;0.73;;;0.90;99.90;;;;;;4400897;32;20066;-55
2020/12/02 02:53:17;;;;;;;2.35;1.70;;;0.90;99.90;;;;;;4401619;32;20051;-55
2020/12/02 02:55:42;;;;;;;0.90;0.90;;;0.90;99.90;;;;;;4399931;32;20086;-54
2020/12/02 02:58:08;;;;;;;0.95;0.80;;;0.90;99.90;;;;;;4401367;32;20404;-54
2020/12/02 03:00:34;;;;;;;3.35;1.92;;;0.80;99.90;;;;;;4401587;32;20054;-55
2020/12/02 03:03:00;;;;;;;1.02;0.95;;;0.80;99.90;;;;;;4400692;32;20070;-51
2020/12/02 03:05:26;;;;;;;1.23;1.20;;;0.80;99.90;;;;;;4396492;32;20062;-51
2020/12/02 03:07:57;;;;;;;0.65;0.65;;;0.80;99.90;;;;;;4416787;32;20153;-52
2020/12/02 03:10:26;;;;;;;1.87;0.95;;;0.80;99.90;;;;;;4416267;32;20074;-52
2020/12/02 03:12:53;;;;;;;0.85;0.85;;;0.80;99.90;;;;;;4415977;32;20070;-51
2020/12/02 03:15:19;;;;;;;1.95;1.52;;;0.70;99.90;;;;;;4415030;32;20554;-55
2020/12/02 03:17:45;;;;;;;1.77;1.67;;;0.70;99.90;;;;;;4415613;32;20089;-55
2020/12/02 03:20:21;;;;;;;1.48;1.25;;;0.70;99.90;;;;;;4415970;32;20117;-52
2020/12/02 03:22:48;;;;;;;3.47;2.47;;;0.70;99.90;;;;;;4415525;32;20091;-53
2020/12/02 03:25:19;;;;;;;1.35;1.25;;;0.70;99.90;;;;;;4416027;32;20089;-52
2020/12/02 03:27:45;;;;;;;1.35;1.27;;;0.60;99.90;;;;;;4416984;32;20065;-54
2020/12/02 03:30:11;;;;;;;1.52;1.42;;;0.60;99.90;;;;;;4409988;32;20065;-53
2020/12/02 03:32:36;;;;;;;1.67;1.20;;;0.60;99.90;;;;;;4399446;32;20438;-55
2020/12/02 03:35:04;;;;;;;1.27;1.15;;;0.70;99.90;;;;;;4398852;32;20073;-55
2020/12/02 03:37:29;;;;;;;0.60;0.60;;;0.70;99.90;;;;;;4400512;32;20078;-54
2020/12/02 03:39:55;;;;;;;0.80;0.80;;;0.70;99.90;;;;;;4399846;32;20409;-55
2020/12/02 03:42:20;;;;;;;4.40;1.70;;;0.60;99.90;;;;;;4401001;32;20058;-56
2020/12/02 03:44:45;;;;;;;2.62;1.58;;;0.60;99.90;;;;;;4400402;32;20618;-52
2020/12/02 03:47:11;;;;;;;3.03;2.10;;;0.60;99.90;;;;;;4399853;32;20475;-52
2020/12/02 03:49:36;;;;;;;1.60;1.00;;;0.60;99.90;;;;;;4401142;32;20063;-54
2020/12/02 03:52:02;;;;;;;1.90;0.60;;;0.70;99.90;;;;;;4399167;32;20074;-56
2020/12/02 03:54:28;;;;;;;3.05;0.95;;;0.70;99.90;;;;;;4399826;32;20116;-52
2020/12/02 03:56:53;;;;;;;12.82;2.40;;;0.70;99.90;;;;;;4399918;32;20061;-57
2020/12/02 03:59:19;;;;;;;0.55;0.55;;;0.70;99.90;;;;;;4399599;32;20507;-57
2020/12/02 04:01:44;;;;;;;1.87;1.10;;;0.70;99.90;;;;;;4401507;32;20058;-55
2020/12/02 04:04:10;;;;;;;2.17;0.98;;;0.60;99.90;;;;;;4400103;32;20065;-55
2020/12/02 04:06:35;;;;;;;5.15;1.37;;;0.70;99.90;;;;;;4385793;32;20078;-51
2020/12/02 04:09:01;;;;;;;1.00;0.95;;;0.60;99.90;;;;;;4384640;32;20129;-54
2020/12/02 04:11:26;;;;;;;0.60;0.60;;;0.60;99.90;;;;;;4385573;32;20091;-52
2020/12/02 04:13:52;;;;;;;1.33;1.23;;;0.50;99.90;;;;;;4386196;32;20058;-53
2020/12/02 04:16:17;;;;;;;1.17;1.10;;;0.60;99.90;;;;;;4385348;32;20105;-56
2020/12/02 04:18:43;;;;;;;3.12;1.87;;;0.60;99.90;;;;;;4384907;32;20129;-52
2020/12/02 04:21:08;;;;;;;0.93;0.90;;;0.50;99.90;;;;;;4384831;32;20063;-52
2020/12/02 04:23:34;;;;;;;0.47;0.47;;;0.50;99.90;;;;;;4384936;32;20105;-53
2020/12/02 04:26:00;;;;;;;1.40;1.30;;;0.50;99.90;;;;;;4384171;32;20067;-56
2020/12/02 04:28:26;;;;;;;1.27;1.12;;;0.50;99.90;;;;;;4371765;32;20062;-53
2020/12/02 04:30:51;;;;;;;3.00;2.03;;;0.50;99.90;;;;;;4395951;32;20574;-54
2020/12/02 04:33:17;;;;;;;3.03;1.70;;;0.60;99.90;;;;;;4401179;32;20078;-53
2020/12/02 04:35:43;;;;;;;4.97;1.45;;;0.50;99.90;;;;;;4401071;32;20073;-56
2020/12/02 04:38:09;;;;;;;1.10;1.05;;;0.50;99.90;;;;;;4399865;32;20070;-56
2020/12/02 04:40:39;;;;;;;0.88;0.88;;;0.50;99.90;;;;;;4401112;32;20567;-53
2020/12/02 04:43:28;;;;;;;0.65;0.65;;;0.60;99.90;;;;;;4387461;32;20433;-55
2020/12/02 04:45:55;;;;;;;1.50;1.40;;;0.50;99.90;;;;;;4400031;32;20496;-53
2020/12/02 04:48:26;;;;;;;1.02;1.02;;;0.40;99.90;;;;;;4399200;32;20090;-55
2020/12/02 04:51:12;;;;;;;2.55;2.05;;;0.50;99.90;;;;;;4388125;32;20063;-55
2020/12/02 04:53:41;;;;;;;0.60;0.60;;;0.50;99.90;;;;;;4388465;32;20062;-55
2020/12/02 04:56:07;;;;;;;2.08;1.65;;;0.40;99.90;;;;;;4386331;32;20113;-56
2020/12/02 04:58:35;;;;;;;2.12;1.45;;;0.40;99.90;;;;;;4400929;32;20069;-52
2020/12/02 05:01:23;;;;;;;2.10;1.55;;;0.40;99.90;;;;;;4386917;32;20057;-57
2020/12/02 05:04:15;;;;;;;1.50;1.37;;;0.40;99.90;;;;;;4388676;32;20127;-56
2020/12/02 05:06:44;;;;;;;5.57;1.58;;;0.40;99.90;;;;;;4373844;32;20582;-56
2020/12/02 05:09:15;;;;;;;1.40;1.30;;;0.50;99.90;;;;;;4371434;32;20465;-52
2020/12/02 05:11:41;;;;;;;1.30;1.20;;;0.50;99.90;;;;;;4385255;32;20062;-54
2020/12/02 05:14:13;;;;;;;0.62;0.62;;;0.50;99.90;;;;;;4371845;32;20385;-51
2020/12/02 05:16:39;;;;;;;1.05;0.80;;;0.50;99.90;;;;;;4370898;32;20568;-53
2020/12/02 05:19:15;;;;;;;0.70;0.70;;;0.50;99.90;;;;;;4370944;32;20074;-55
2020/12/02 05:21:41;;;;;;;3.20;1.95;;;0.50;99.90;;;;;;4370498;32;20078;-52
2020/12/02 05:24:18;;;;;;;5.22;2.25;;;0.60;99.90;;;;;;4384865;32;20524;-56
2020/12/02 05:26:47;;;;;;;0.95;0.95;;;0.40;99.90;;;;;;4380530;32;20066;-55
2020/12/02 05:29:24;;;;;;;0.82;0.82;;;0.40;99.90;;;;;;4386203;32;20074;-54
2020/12/02 05:31:50;;;;;;;0.85;0.85;;;0.40;99.90;;;;;;4375941;32;20124;-52
2020/12/02 05:34:19;;;;;;;5.20;2.75;;;0.40;99.90;;;;;;4387173;32;20082;-54
2020/12/02 05:36:50;;;;;;;1.08;1.08;;;0.30;99.90;;;;;;4389035;32;20113;-55
2020/12/02 05:39:19;;;;;;;0.95;0.95;;;0.30;99.90;;;;;;4388613;32;20066;-54
2020/12/02 05:41:50;;;;;;;0.80;0.80;;;0.20;99.90;;;;;;4389256;32;20066;-52
2020/12/02 05:44:18;;;;;;;;;;;0.20;99.90;;;;;;4387191;32;20418;-56
2020/12/02 05:46:49;;;;;;;0.68;0.68;;;0.10;99.90;;;;;;4402786;32;20005;-53
2020/12/02 05:49:26;;;;;;;3.50;2.85;;;0.20;99.90;;;;;;4400806;32;20058;-57
2020/12/02 05:51:52;;;;;;;0.88;0.88;;;0.10;99.90;;;;;;4384059;32;20377;-56
2020/12/02 05:54:21;;;;;;;2.35;1.98;;;0.10;99.90;;;;;;4398432;32;20050;-52
2020/12/02 05:56:47;;;;;;;0.90;0.90;;;0.10;99.90;;;;;;4385491;32;20069;-53
2020/12/02 05:59:12;;;;;;;2.10;1.60;;;0.10;99.90;;;;;;4394366;32;20089;-54
2020/12/02 06:01:40;;;;;;;3.47;1.70;;;0.10;99.90;;;;;;4396048;32;20157;-57
2020/12/02 06:04:12;;;;;;;2.33;1.58;;;0.00;99.90;;;;;;4393529;32;20450;-53
2020/12/02 06:06:37;;;;;;;1.42;1.33;;;0.00;99.90;;;;;;4383189;32;20082;-53
2020/12/02 06:09:03;;;;;;;3.10;2.08;;;0.00;99.90;;;;;;4402655;32;20051;-53
2020/12/02 06:11:32;;;;;;;2.83;1.87;;;0.10;99.90;;;;;;4402564;32;20523;-57
2020/12/02 06:14:02;;;;;;;6.90;1.45;;;0.10;99.90;;;;;;4393838;32;20083;-57
2020/12/02 06:16:47;;;;;;;2.55;1.60;;;0.00;99.90;;;;;;4401634;32;20085;-55
2020/12/02 06:19:18;;;;;;;0.85;0.85;;;0.10;99.90;;;;;;4390742;32;20070;-55
2020/12/02 06:21:54;;;;;;;0.70;0.70;;;0.10;99.90;;;;;;4384935;32;20398;-56
2020/12/02 06:24:41;;;;;;;1.98;1.83;;;0.20;99.90;;;;;;4390435;32;20058;-58
2020/12/02 06:27:17;;;;;;;0.70;0.70;;;0.30;99.90;;;;;;4387408;32;20098;-53
2020/12/02 06:29:47;;;;;;;1.62;1.52;;;0.30;99.90;;;;;;4401114;32;20488;-54
2020/12/02 06:32:14;;;;;;;1.57;1.43;;;0.40;99.90;;;;;;4380819;32;20371;-55
2020/12/02 06:34:41;;;;;;;4.20;2.00;;;0.40;99.90;;;;;;4392664;32;20124;-53
2020/12/02 06:37:17;;;;;;;2.12;1.83;;;0.50;99.90;;;;;;4414113;32;20153;-55
2020/12/02 06:39:47;;;;;;;6.37;2.30;;;0.50;99.90;;;;;;4398825;32;20062;-57
2020/12/02 06:42:41;;;;;;;2.72;2.53;;;0.40;99.90;;;;;;4378310;32;20287;-54
2020/12/02 06:45:11;;;;;;;2.30;2.05;;;0.40;99.90;;;;;;4391851;32;20086;-52
2020/12/02 06:47:57;;;;;;;1.37;1.27;;;0.40;99.90;;;;;;4391693;32;20580;-55
2020/12/02 06:50:27;;;;;;;1.08;1.08;;;0.40;99.90;;;;;;4389111;32;20063;-53
2020/12/02 06:52:56;;;;;;;1.23;1.02;;;0.30;99.90;;;;;;4393606;32;20133;-57
2020/12/02 06:55:27;;;;;;;4.65;1.50;;;0.40;99.90;;;;;;4364993;32;20138;-56
2020/12/02 06:57:59;;;;;;;2.65;1.77;;;0.40;99.90;;;;;;4376867;32;20095;-57
2020/12/02 07:00:29;;;;;;;1.10;1.10;;;0.40;99.90;;;;;;4371480;32;20082;-53
2020/12/02 07:03:01;;;;;;;1.90;1.70;;;0.40;99.90;;;;;;4390991;32;20070;-57
2020/12/02 07:05:39;;;;;;;1.95;1.77;;;0.30;99.90;;;;;;4383259;32;20586;-57
2020/12/02 07:08:12;;;;;;;2.47;1.35;;;0.40;99.90;;;;;;4387285;32;20103;-56
2020/12/02 07:10:38;;;;;;;2.55;1.98;;;0.30;99.90;;;;;;4384992;32;20121;-58
2020/12/02 07:13:04;;;;;;;0.80;0.80;;;0.40;99.90;;;;;;4387172;32;20531;-56
2020/12/02 07:15:29;;;;;;;3.42;2.60;;;0.40;99.90;;;;;;4391737;32;20069;-56
2020/12/02 07:18:10;;;;;;;1.80;1.70;;;0.50;99.90;;;;;;4393430;32;20474;-58
2020/12/02 07:20:36;;;;;;;;;;;0.50;99.90;;;;;;4388603;32;20054;-56
2020/12/02 07:23:02;;;;;;;11.07;3.60;;;0.50;99.90;;;;;;4392886;32;20000;-58
2020/12/02 07:25:27;;;;;;;2.28;1.95;;;0.40;99.90;;;;;;4390969;32;20125;-55
2020/12/02 07:27:53;;;;;;;0.82;0.82;;;0.30;99.90;;;;;;4392526;32;20450;-58
2020/12/02 07:30:36;;;;;;;1.90;1.70;;;0.30;99.90;;;;;;4390023;32;20081;-58
2020/12/02 07:33:23;;;;;;;1.00;1.00;;;0.40;99.90;;;;;;4392775;32;20070;-54
2020/12/02 07:36:13;;;;;;;1.35;1.25;;;0.40;99.90;;;;;;4378474;32;20090;-57
2020/12/02 07:38:39;;;;;;;6.57;1.50;;;0.50;99.90;;;;;;4384479;32;20085;-56
2020/12/02 07:41:09;;;;;;;1.42;1.33;;;0.50;99.90;;;;;;4393331;32;20066;-55
2020/12/02 07:43:35;;;;;;;0.97;0.97;;;0.40;99.90;;;;;;4392446;32;20053;-53
2020/12/02 07:46:02;;;;;;;1.25;1.17;;;0.30;99.90;;;;;;4382474;32;20078;-54
2020/12/02 07:48:29;;;;;;;1.00;1.00;;;0.30;99.90;;;;;;4396205;32;20172;-56
2020/12/02 07:51:02;;;;;;;0.93;0.93;;;0.30;99.90;;;;;;4385453;32;20087;-56
2020/12/02 07:53:51;;;;;;;0.90;0.90;;;0.50;99.90;;;;;;4394387;32;20078;-57
2020/12/02 07:56:24;;;;;;;0.60;0.60;;;0.60;99.90;;;;;;4384115;32;20054;-54
2020/12/02 07:58:51;;;;;;;2.65;1.80;;;0.70;99.90;;;;;;4380642;32;20133;-57
2020/12/02 08:01:42;;;;;;;1.62;1.52;;;0.70;99.90;;;;;;4384890;32;20137;-58
2020/12/02 08:04:21;;;;;;;2.10;1.92;;;0.70;99.90;;;;;;4379868;32;20116;-57
2020/12/02 08:07:05;;;;;;;2.20;1.33;;;0.80;99.90;;;;;;4389609;32;20511;-57
2020/12/02 08:09:44;;;;;;;0.73;0.73;;;0.90;99.90;;;;;;4384222;32;20058;-56
2020/12/02 08:12:27;;;;;;;6.20;2.10;;;1.00;99.90;;;;;;4391586;32;20070;-57
2020/12/02 08:15:11;;;;;;;3.90;2.03;;;0.90;99.90;;;;;;4388381;32;20173;-53
2020/12/02 08:17:40;;;;;;;5.80;2.10;;;0.90;99.90;;;;;;4371970;32;20110;-55
2020/12/02 08:20:31;;;;;;;1.60;1.50;;;1.10;99.90;;;;;;4392173;32;20061;-58
2020/12/02 08:22:59;;;;;;;1.30;1.20;;;1.10;99.90;;;;;;4381573;32;20135;-58
2020/12/02 08:25:32;;;;;;;3.22;1.85;;;1.10;99.90;;;;;;4384065;32;20471;-57
2020/12/02 08:28:00;;;;;;;1.10;1.02;;;1.10;99.90;;;;;;4373516;32;20796;-58
2020/12/02 08:30:29;;;;;;;1.00;0.90;;;1.20;99.90;;;;;;4385745;32;20152;-59
2020/12/02 08:33:08;;;;;;;1.45;1.35;;;1.20;99.90;;;;;;4388496;32;21018;-57
2020/12/02 08:35:40;;;;;;;4.95;1.58;;;1.30;99.90;;;;;;4381013;32;20075;-53
2020/12/02 08:38:06;;;;;;;1.98;1.75;;;1.40;99.90;;;;;;4377973;32;20133;-59
2020/12/02 08:40:39;;;;;;;8.60;2.85;;;1.50;99.90;;;;;;4343054;32;1114105;-54
2020/12/02 08:43:27;;;;;;;2.37;2.15;;;1.60;99.90;;;;;;4377732;32;20132;-57
2020/12/02 08:45:59;;;;;;;2.60;2.37;;;1.60;99.90;;;;;;4357853;32;20582;-57
2020/12/02 08:48:24;;;;;;;1.60;1.50;;;1.50;99.90;;;;;;4370023;32;20140;-55
2020/12/02 08:50:50;;;;;;;4.97;2.62;;;1.50;99.90;;;;;;4368857;32;20090;-58
2020/12/02 08:53:22;;;;;;;1.95;1.75;;;1.40;99.90;;;;;;4370533;32;20648;-55
2020/12/02 08:55:48;;;;;;;16.02;2.97;;;1.40;99.90;;;;;;4371873;32;20086;-57
2020/12/02 08:58:14;;;;;;;1.40;1.27;;;1.50;99.90;;;;;;4377802;32;20125;-54
2020/12/02 09:00:39;;;;;;;2.40;1.50;;;1.50;99.90;;;;;;4386271;32;20089;-53
2020/12/02 09:03:04;;;;;;;3.53;2.30;;;1.50;99.90;;;;;;4387938;32;20076;-59
2020/12/02 09:05:31;;;;;;;1.45;1.12;;;1.50;99.90;;;;;;4392288;32;20102;-58
2020/12/02 09:07:57;;;;;;;1.42;1.33;;;1.50;99.90;;;;;;4388075;32;20201;-56
2020/12/02 09:10:23;;;;;;;2.20;2.03;;;1.60;99.90;;;;;;4388303;32;20100;-55
2020/12/02 09:12:48;;;;;;;1.27;1.17;;;1.80;99.90;;;;;;4388408;32;20058;-55
2020/12/02 09:15:13;;;;;;;1.27;1.20;;;1.90;99.90;;;;;;4378961;32;20070;-57
2020/12/02 09:17:39;;;;;;;3.45;2.03;;;1.90;99.90;;;;;;4387061;32;20067;-55
2020/12/02 09:20:05;;;;;;;2.00;1.52;;;1.90;99.90;;;;;;4396273;32;20065;-54
2020/12/02 09:22:31;;;;;;;1.80;1.70;;;1.90;99.90;;;;;;4382373;32;20078;-54
2020/12/02 09:24:56;;;;;;;2.40;1.25;;;1.90;99.90;;;;;;4394082;32;20132;-55
2020/12/02 09:27:22;;;;;;;4.87;2.60;;;1.80;99.90;;;;;;4395404;32;20391;-58
2020/12/02 09:29:47;;;;;;;1.98;1.55;;;1.90;99.90;;;;;;4395248;32;20062;-54
2020/12/02 09:32:13;;;;;;;2.92;1.92;;;2.00;99.90;;;;;;4391828;32;20488;-55
2020/12/02 09:34:38;;;;;;;1.25;1.15;;;1.90;99.90;;;;;;4391522;32;20091;-55
2020/12/02 09:37:10;;;;;;;4.25;1.65;;;1.90;99.90;;;;;;4394254;32;20093;-54
2020/12/02 09:39:36;;;;;;;2.55;1.52;;;2.00;99.90;;;;;;4394727;32;20065;-54
2020/12/02 09:42:29;;;;;;;2.62;1.40;;;2.00;99.90;;;;;;4380346;32;20484;-55
2020/12/02 09:45:04;;;;;;;2.87;2.25;;;2.10;99.90;;;;;;4384597;32;20105;-55
2020/12/02 09:47:30;;;;;;;2.22;1.48;;;2.10;99.90;;;;;;4374166;32;20327;-57
2020/12/02 09:49:55;;;;;;;2.17;1.98;;;2.10;99.90;;;;;;4386122;32;20500;-58
2020/12/02 09:52:45;;;;;;;2.22;1.58;;;2.10;99.90;;;;;;4391497;32;20078;-57
2020/12/02 09:55:16;;;;;;;1.70;1.60;;;2.30;99.90;;;;;;4378935;32;20074;-55
2020/12/02 09:57:41;;;;;;;24.12;2.80;;;2.40;99.90;;;;;;4377620;32;20085;-58
2020/12/02 10:00:10;;;;;;;1.50;1.40;;;2.30;99.90;;;;;;4394655;32;20108;-55
2020/12/02 10:02:38;;;;;;;1.48;1.37;;;2.30;99.90;;;;;;4367623;32;20360;-55
2020/12/02 10:05:33;;;;;;;3.87;2.10;;;2.40;99.90;;;;;;4390044;32;20074;-58
2020/12/02 10:08:21;;;;;;;5.68;2.87;;;2.50;99.90;;;;;;4385761;32;20093;-57
2020/12/02 10:10:55;;;;;;;33.42;3.60;;;2.50;99.90;;;;;;4391857;32;20082;-56
2020/12/02 10:13:50;;;;;;;2.95;2.05;;;2.60;99.90;;;;;;4380776;32;20798;-58
2020/12/02 10:16:25;;;;;;;4.30;2.87;;;2.60;99.90;;;;;;4381242;32;20195;-56
2020/12/02 10:19:19;;;;;;;5.10;1.75;;;2.60;99.90;;;;;;4390235;32;20073;-59
2020/12/02 10:22:13;;;;;;;5.72;2.00;;;2.60;99.90;;;;;;4380825;32;20074;-56
2020/12/02 10:25:02;;;;;;;2.67;2.15;;;2.70;99.90;;;;;;4382475;32;20065;-57
2020/12/02 10:27:35;;;;;;;3.62;2.28;;;2.70;99.90;;;;;;4385969;32;20082;-56
2020/12/02 10:30:11;;;;;;;3.05;1.55;;;2.70;99.90;;;;;;4390862;32;20070;-54
2020/12/02 10:32:57;;;;;;;4.43;2.10;;;2.80;99.90;;;;;;4390159;32;20089;-59
2020/12/02 10:35:24;;;;;;;2.92;2.42;;;2.80;99.90;;;;;;4389091;32;20173;-58
2020/12/02 10:37:54;;;;;;;3.42;2.35;;;2.90;99.90;;;;;;4392756;32;20542;-57
2020/12/02 10:40:19;;;;;;;5.45;2.30;;;2.90;99.90;;;;;;4395258;32;20074;-57
2020/12/02 10:43:02;;;;;;;6.00;2.30;;;3.10;99.90;;;;;;4393976;32;20118;-57
2020/12/02 10:45:28;;;;;;;2.15;1.85;;;3.10;99.90;;;;;;4390322;32;20093;-57
2020/12/02 10:48:20;;;;;;;5.00;1.62;;;2.90;99.90;;;;;;4385049;32;20099;-58
2020/12/02 10:50:47;;;;;;;2.37;2.03;;;2.90;99.90;;;;;;4372428;32;20074;-57
2020/12/02 10:53:15;;;;;;;6.07;2.95;;;3.00;99.90;;;;;;4388277;32;20121;-58
2020/12/02 10:55:41;;;;;;;1.45;1.35;;;3.00;99.90;;;;;;4386877;32;20500;-56
2020/12/02 10:58:18;;;;;;;5.50;2.55;;;3.00;99.90;;;;;;4384267;32;20070;-57
2020/12/02 11:00:48;;;;;;;2.67;1.80;;;3.10;99.90;;;;;;4390347;32;20132;-58
2020/12/02 11:03:25;;;;;;;2.50;2.03;;;3.10;99.90;;;;;;4374989;32;20610;-60
2020/12/02 11:06:14;;;;;;;2.40;1.62;;;3.10;99.90;;;;;;4380339;32;20066;-59
2020/12/02 11:08:52;;;;;;;7.10;1.95;;;3.20;99.90;;;;;;4381589;32;20090;-58
2020/12/02 11:11:35;;;;;;;3.95;1.62;;;3.10;99.90;;;;;;4389095;32;20099;-59
2020/12/02 11:14:36;;;;;;;4.72;2.35;;;3.10;99.90;;;;;;4390187;32;20082;-59
2020/12/02 11:17:19;;;;;;;4.97;1.80;;;3.20;99.90;;;;;;4389789;32;20520;-59
2020/12/02 11:19:52;;;;;;;3.90;2.35;;;3.20;99.90;;;;;;4387231;32;20540;-56
2020/12/02 11:22:51;;;;;;;1.48;1.37;;;3.20;99.90;;;;;;4390247;32;20528;-59
2020/12/02 11:25:42;;;;;;;1.50;1.27;;;3.30;99.90;;;;;;4387764;32;20090;-58
2020/12/02 11:28:08;;;;;;;;;;;3.20;99.90;;;;;;4390159;32;20074;-55
2020/12/02 11:30:38;;;;;;;1.23;1.23;;;3.30;99.90;;;;;;4389391;32;19957;-58
2020/12/02 11:33:22;;;;;;;1.25;1.15;;;3.40;99.90;;;;;;4392670;32;20547;-56
2020/12/02 11:36:27;;;;;;;2.80;1.73;;;3.40;99.90;;;;;;4395749;32;20527;-54
2020/12/02 11:39:07;;;;;;;3.37;1.60;;;3.50;99.90;;;;;;4386868;32;20094;-56
2020/12/02 11:41:49;;;;;;;1.45;1.35;;;3.50;99.90;;;;;;4386341;32;20575;-52
2020/12/02 11:44:25;;;;;;;2.20;1.87;;;3.60;99.90;;;;;;4392209;32;20062;-53
2020/12/02 11:46:59;;;;;;;1.02;1.02;;;3.70;99.90;;;;;;4391656;32;20102;-55
2020/12/02 11:49:34;;;;;;;11.12;1.75;;;3.60;99.90;;;;;;4386969;32;20507;-55
2020/12/02 11:52:20;;;;;;;5.53;3.08;;;3.60;99.90;;;;;;4390478;32;21013;-54
2020/12/02 11:54:46;;;;;;;1.77;1.27;;;3.70;99.90;;;;;;4405253;32;20085;-55
2020/12/02 11:57:14;;;;;;;1.55;1.23;;;3.80;99.90;;;;;;4393135;32;20074;-57
2020/12/02 11:59:40;;;;;;;1.90;1.30;;;3.80;99.90;;;;;;4397049;32;20103;-53
2020/12/02 12:02:35;;;;;;;1.25;1.15;;;3.90;99.90;;;;;;4395594;32;20070;-56
2020/12/02 12:05:13;;;;;;;1.33;1.20;;;3.90;99.90;;;;;;4391335;32;20518;-52
2020/12/02 12:08:00;;;;;;;12.35;1.90;;;3.80;99.90;;;;;;4392808;32;20078;-56
2020/12/02 12:10:37;;;;;;;1.73;1.08;;;3.90;99.90;;;;;;4389893;32;20079;-56
2020/12/02 12:13:39;;;;;;;1.25;1.15;;;3.90;99.90;;;;;;4392523;32;20070;-57
2020/12/02 12:16:20;;;;;;;1.48;1.33;;;3.80;99.90;;;;;;4393703;32;20058;-54
2020/12/02 12:18:55;;;;;;;1.80;1.70;;;3.70;99.90;;;;;;4380924;32;20070;-55
2020/12/02 12:21:32;;;;;;;5.28;2.62;;;3.70;99.90;;;;;;4389700;32;20578;-55
2020/12/02 12:24:06;;;;;;;4.40;1.98;;;3.70;99.90;;;;;;4396177;32;20575;-55
2020/12/02 12:26:38;;;;;;;0.80;0.80;;;3.60;99.90;;;;;;4381347;32;20155;-55
2020/12/02 12:29:08;;;;;;;0.90;0.90;;;3.70;99.90;;;;;;4389747;32;20134;-53
2020/12/02 12:31:41;;;;;;;1.77;1.33;;;3.80;99.90;;;;;;4386794;32;20069;-57
2020/12/02 12:34:35;;;;;;;1.25;1.15;;;3.80;99.90;;;;;;4383433;32;20082;-52
2020/12/02 12:37:03;;;;;;;5.45;1.70;;;4.00;99.90;;;;;;4369529;32;20062;-55
2020/12/02 12:39:48;;;;;;;2.65;1.95;;;3.80;99.90;;;;;;4362928;32;20156;-55
2020/12/02 12:42:16;;;;;;;0.95;0.93;;;3.80;99.90;;;;;;4389483;32;20518;-57
2020/12/02 12:44:42;;;;;;;3.97;1.55;;;3.90;99.90;;;;;;4376341;32;20112;-55
2020/12/02 12:47:23;;;;;;;2.50;1.55;;;3.80;99.90;;;;;;4380415;32;20340;-57
2020/12/02 12:49:49;;;;;;;;;;;3.90;99.90;;;;;;4380852;32;20086;-56
2020/12/02 12:52:19;;;;;;;1.50;1.40;;;3.80;99.90;;;;;;4394758;32;19945;-57
2020/12/02 12:54:45;;;;;;;26.83;3.37;;;3.80;99.90;;;;;;4362577;32;20301;-56
2020/12/02 12:57:14;;;;;;;1.70;1.33;;;3.90;99.90;;;;;;4373642;32;20062;-55
2020/12/02 12:59:40;;;;;;;2.08;1.17;;;4.00;99.90;;;;;;4380011;32;20077;-52
2020/12/02 13:02:16;;;;;;;0.65;0.65;;;4.00;99.90;;;;;;4364450;32;20046;-56
2020/12/02 13:04:41;;;;;;;5.15;2.05;;;3.80;99.90;;;;;;4379240;32;20152;-57
2020/12/02 13:07:19;;;;;;;2.47;1.40;;;3.80;99.90;;;;;;4384270;32;20078;-54
2020/12/02 13:10:25;;;;;;;4.43;1.08;;;3.80;99.90;;;;;;4378112;32;20141;-57
2020/12/02 13:13:30;;;;;;;1.10;1.00;;;3.70;99.90;;;;;;4359127;32;20078;-55
2020/12/02 13:16:05;;;;;;;5.15;3.10;;;3.90;99.90;;;;;;4363632;32;20066;-51
2020/12/02 13:18:45;;;;;;;2.92;2.15;;;3.90;99.90;;;;;;4377506;32;20073;-54
2020/12/02 13:21:23;;;;;;;1.23;1.12;;;3.90;99.90;;;;;;4365684;32;20077;-56
2020/12/02 13:23:54;;;;;;;3.53;1.65;;;4.00;99.90;;;;;;4375828;32;20153;-55
2020/12/02 13:26:22;;;;;;;;;;;3.90;99.90;;;;;;4394214;32;20633;-54